KFAR/FAR METAR and TAF weather

Enter ICAO airport designator
Station Type Date Time Source
KFAR METAR 2022/01/29 10:53 UTC NOAA

KFAR 291053Z 17009KT 10SM CLR M11/M14 A2988 RMK AO2 SLP137 T11111144


Station Type Date Time Source
KFAR Decoded METAR 2022/01/29 10:53 UTC NOAA

HECTOR INTERNATIONAL AIRPORT , ND, United States (KFAR) 46-56N 096-49W 277M
Jan 29, 2022 - 05:53 AM EST / 2022.01.29 1053 UTC
Wind: from the S (170 degrees) at 10 MPH (9 KT):0
Visibility: 10 mile(s):0
Sky conditions: clear
Temperature: 12.0 F (-11.1 C)
Windchill: 0 F (-18 C):1
Dew Point: 6.1 F (-14.4 C)
Relative Humidity: 76%
Pressure (altimeter): 29.88 in. Hg (1011 hPa)
ob: KFAR 291053Z 17009KT 10SM CLR M11/M14 A2988 RMK AO2 SLP137 T11111144
cycle: 11

Station Type Date Time Source
KFAR TAF 2022/01/29 06:48 UTC NOAA

TAF KFAR 290546Z 2906/3006 15008KT P6SM BKN140
FM291600 31009KT P6SM BKN024
FM292000 33014G22KT P6SM BKN040
FM300500 34009KT P6SM SCT060

Example: see airport list